createdAt,value
2019-01-23T00:02:18.327Z,82.07
2019-01-23T00:04:52.532Z,78.33
2019-01-23T00:07:29.623Z,81.60
2019-01-23T00:10:04.820Z,87.50
2019-01-23T00:12:36.906Z,78.87
2019-01-23T00:15:11.324Z,84.20
2019-01-23T00:17:44.807Z,82.00
2019-01-23T00:20:18.261Z,78.60
2019-01-23T00:22:50.602Z,86.37
2019-01-23T00:25:21.937Z,80.43
2019-01-23T00:27:53.791Z,78.80
2019-01-23T00:30:25.076Z,82.33
2019-01-23T00:32:56.720Z,84.57
2019-01-23T00:35:29.997Z,79.67
2019-01-23T00:38:03.540Z,83.40
2019-01-23T00:40:35.292Z,80.23
2019-01-23T00:43:08.002Z,81.80
2019-01-23T00:45:41.231Z,79.47
2019-01-23T00:48:14.158Z,80.47
2019-01-23T00:50:47.689Z,69.43
2019-01-23T00:53:21.258Z,66.57
2019-01-23T00:55:53.408Z,86.13
2019-01-23T00:58:26.994Z,82.07
2019-01-23T01:00:58.142Z,84.07
2019-01-23T01:03:30.308Z,81.23
2019-01-23T01:06:02.880Z,85.60
2019-01-23T01:08:34.334Z,84.83
2019-01-23T01:11:07.055Z,86.87
2019-01-23T01:13:40.044Z,81.37
2019-01-23T01:16:12.233Z,86.93
2019-01-23T01:18:43.464Z,85.67
2019-01-23T01:21:14.820Z,86.90
2019-01-23T01:23:47.182Z,83.50
2019-01-23T01:26:18.635Z,78.10
2019-01-23T01:28:55.979Z,78.93
2019-01-23T01:31:23.343Z,80.33
2019-01-23T01:33:54.650Z,84.53
2019-01-23T01:36:26.784Z,86.83
2019-01-23T01:38:58.213Z,75.97
2019-01-23T01:41:30.316Z,75.53
2019-01-23T01:44:03.572Z,80.10
2019-01-23T01:46:36.140Z,80.93
2019-01-23T01:49:09.696Z,80.70
2019-01-23T01:51:42.231Z,78.33
2019-01-23T01:54:17.010Z,79.27
2019-01-23T01:57:08.716Z,83.07
2019-01-23T01:59:44.090Z,83.40
2019-01-23T02:02:15.355Z,79.23
2019-01-23T02:04:47.489Z,81.33
2019-01-23T02:07:19.011Z,74.43
2019-01-23T02:09:52.941Z,79.40
2019-01-23T02:12:25.659Z,83.37
2019-01-23T02:14:58.532Z,78.80
2019-01-23T02:17:31.370Z,72.23
2019-01-23T02:20:02.975Z,81.83
2019-01-23T02:22:34.280Z,75.13
2019-01-23T02:25:07.262Z,77.07
2019-01-23T02:27:39.456Z,71.87
2019-01-23T02:30:14.337Z,75.67
2019-01-23T02:32:48.224Z,73.67
2019-01-23T02:35:26.239Z,70.60
2019-01-23T02:37:58.095Z,69.87
2019-01-23T02:40:29.902Z,68.27
2019-01-23T02:43:01.873Z,67.63
2019-01-23T02:45:35.983Z,71.43
2019-01-23T02:48:06.567Z,77.57
2019-01-23T02:50:38.454Z,68.83
2019-01-23T02:53:11.732Z,70.57
2019-01-23T02:55:43.331Z,69.37
2019-01-23T02:58:15.230Z,71.23
2019-01-23T03:00:47.709Z,67.77
2019-01-23T03:03:18.811Z,70.50
2019-01-23T03:05:50.099Z,72.70
2019-01-23T03:08:20.764Z,68.53
2019-01-23T03:10:51.777Z,67.50
2019-01-23T03:13:23.537Z,68.63
2019-01-23T03:15:56.590Z,68.33
2019-01-23T03:18:28.039Z,65.43
2019-01-23T03:21:06.903Z,64.90
2019-01-23T03:23:39.176Z,70.47
2019-01-23T03:26:10.689Z,62.00
2019-01-23T03:28:42.066Z,66.10
2019-01-23T03:31:16.103Z,67.43
2019-01-23T03:33:49.140Z,70.27
2019-01-23T03:36:23.855Z,68.70
2019-01-23T03:39:02.649Z,72.73
2019-01-23T03:41:46.314Z,66.90
2019-01-23T03:44:18.504Z,65.77
2019-01-23T03:46:52.320Z,67.90
2019-01-23T03:49:24.039Z,74.60
2019-01-23T03:51:56.763Z,65.93
2019-01-23T03:54:28.482Z,67.43
2019-01-23T03:57:01.231Z,70.97
2019-01-23T03:59:35.826Z,61.23
2019-01-23T04:02:07.926Z,65.93
2019-01-23T04:04:39.572Z,71.90
2019-01-23T04:07:10.190Z,66.80
2019-01-23T04:09:41.567Z,62.80
2019-01-23T04:12:16.954Z,68.17
2019-01-23T04:14:51.746Z,66.70
2019-01-23T04:17:25.552Z,66.60
2019-01-23T04:19:57.194Z,66.67
2019-01-23T04:22:31.537Z,66.70
2019-01-23T04:25:09.667Z,65.63
2019-01-23T04:27:42.522Z,70.70
2019-01-23T04:30:20.919Z,71.83
2019-01-23T04:32:53.624Z,65.40
2019-01-23T04:35:25.094Z,69.53
2019-01-23T04:37:57.650Z,68.90
2019-01-23T04:40:28.214Z,65.47
2019-01-23T04:43:00.025Z,72.33
2019-01-23T04:45:32.194Z,66.37
2019-01-23T04:48:08.649Z,69.80
2019-01-23T04:51:14.544Z,63.63
2019-01-23T04:53:49.489Z,70.90
2019-01-23T04:56:21.752Z,70.73
2019-01-23T04:58:53.903Z,66.30
2019-01-23T05:01:25.762Z,69.03
2019-01-23T05:03:58.069Z,65.93
2019-01-23T05:06:29.896Z,66.03
2019-01-23T05:09:01.275Z,66.73
2019-01-23T05:11:34.769Z,64.53
2019-01-23T05:14:06.416Z,70.53
2019-01-23T05:16:37.977Z,71.47
2019-01-23T05:19:11.046Z,74.33
2019-01-23T05:21:43.449Z,69.07
2019-01-23T05:24:17.416Z,69.43
2019-01-23T05:26:48.801Z,69.50
2019-01-23T05:29:23.126Z,72.77
2019-01-23T05:32:00.736Z,76.30
2019-01-23T05:34:37.088Z,74.77
2019-01-23T05:37:11.206Z,73.10
2019-01-23T05:39:42.890Z,77.57
2019-01-23T05:42:14.621Z,78.37
2019-01-23T05:44:46.976Z,83.13
2019-01-23T05:47:18.655Z,80.50
2019-01-23T05:49:54.298Z,74.80
2019-01-23T05:52:25.562Z,77.47
2019-01-23T05:54:58.536Z,72.73
2019-01-23T05:57:30.821Z,74.07
2019-01-23T06:00:03.577Z,77.57
2019-01-23T06:02:46.575Z,76.90
2019-01-23T06:05:20.038Z,79.17
2019-01-23T06:07:52.358Z,82.73
2019-01-23T06:10:26.194Z,84.93
2019-01-23T06:12:57.993Z,79.83
2019-01-23T06:15:30.095Z,87.80
2019-01-23T06:18:01.916Z,81.27
2019-01-23T06:20:33.918Z,83.27
2019-01-23T06:23:06.018Z,75.10
2019-01-23T06:25:37.757Z,82.57
2019-01-23T06:28:09.862Z,79.13
2019-01-23T06:30:40.930Z,81.70
2019-01-23T06:33:14.585Z,79.73
2019-01-23T06:35:47.600Z,84.40
2019-01-23T06:38:23.369Z,82.47
2019-01-23T06:40:54.033Z,84.67
2019-01-23T06:43:25.929Z,82.90
2019-01-23T06:45:58.438Z,85.67
2019-01-23T06:48:31.293Z,81.27
2019-01-23T06:51:05.162Z,81.50
2019-01-23T06:53:36.394Z,81.23
2019-01-23T06:56:21.199Z,84.77
2019-01-23T06:58:52.502Z,84.90
2019-01-23T07:01:26.534Z,86.87
2019-01-23T07:03:57.911Z,84.80
2019-01-23T07:06:30.754Z,93.13
2019-01-23T07:09:01.857Z,84.63
2019-01-23T07:11:36.121Z,88.40
2019-01-23T07:14:07.674Z,86.80
2019-01-23T07:16:39.966Z,84.50
2019-01-23T07:19:10.572Z,83.17
2019-01-23T07:21:44.072Z,84.47
2019-01-23T07:24:16.098Z,85.40
2019-01-23T07:26:49.600Z,91.73
2019-01-23T07:29:23.585Z,87.23
2019-01-23T07:31:55.447Z,79.73
2019-01-23T07:34:29.650Z,86.17
2019-01-23T07:37:03.484Z,79.83
2019-01-23T07:39:35.196Z,84.20
2019-01-23T07:42:08.921Z,84.50
2019-01-23T07:44:41.712Z,85.50
2019-01-23T07:47:18.282Z,82.30
2019-01-23T07:49:50.282Z,82.43
2019-01-23T07:55:27.869Z,87.00
2019-01-23T07:57:59.542Z,80.40
2019-01-23T08:00:31.551Z,84.07
2019-01-23T08:03:02.884Z,85.33
2019-01-23T08:05:35.356Z,82.87
2019-01-23T08:08:08.035Z,90.67
2019-01-23T08:10:40.747Z,92.23
2019-01-23T08:13:11.515Z,88.37
2019-01-23T08:15:46.725Z,83.00
2019-01-23T08:18:17.691Z,85.57
2019-01-23T08:20:49.044Z,89.87
2019-01-23T08:23:21.211Z,82.47
2019-01-23T08:25:55.265Z,90.60
2019-01-23T08:28:26.753Z,83.23
2019-01-23T08:31:03.639Z,84.17
2019-01-23T08:33:34.804Z,80.50
2019-01-23T08:36:07.474Z,86.77
2019-01-23T08:38:38.702Z,83.13
2019-01-23T08:41:11.190Z,86.33
2019-01-23T08:43:43.015Z,85.00
2019-01-23T08:46:15.722Z,84.63
2019-01-23T08:48:47.884Z,86.87
2019-01-23T08:51:18.940Z,84.80
2019-01-23T08:53:50.258Z,91.70
2019-01-23T08:56:22.892Z,80.13
2019-01-23T08:58:55.008Z,79.07
2019-01-23T09:01:25.289Z,79.77
2019-01-23T09:03:57.188Z,90.90
2019-01-23T09:06:33.483Z,89.93
2019-01-23T09:09:08.466Z,84.30
2019-01-23T09:11:43.118Z,88.87
2019-01-23T09:14:14.474Z,92.30
2019-01-23T09:16:47.669Z,81.47
2019-01-23T09:19:19.833Z,80.27
2019-01-23T09:21:56.608Z,86.57
2019-01-23T09:24:33.995Z,80.77
2019-01-23T09:27:06.194Z,84.03
2019-01-23T09:29:39.319Z,77.37
2019-01-23T09:32:47.125Z,82.83
2019-01-23T09:35:49.647Z,81.60
2019-01-23T09:38:59.837Z,84.40
2019-01-23T09:42:17.343Z,76.27
2019-01-23T09:45:35.695Z,76.87
2019-01-23T09:48:43.918Z,78.90
2019-01-23T09:52:16.920Z,74.93
2019-01-23T09:54:49.202Z,69.03
2019-01-23T09:57:22.348Z,79.47
2019-01-23T09:59:54.686Z,77.27
2019-01-23T10:02:28.240Z,82.90
2019-01-23T10:05:01.363Z,80.53
2019-01-23T10:07:33.688Z,80.23
2019-01-23T10:10:05.208Z,78.77
2019-01-23T10:12:38.213Z,83.97
2019-01-23T10:15:15.436Z,77.80
2019-01-23T10:17:47.185Z,75.40
2019-01-23T10:20:18.537Z,75.53
2019-01-23T10:22:50.105Z,80.80
2019-01-23T10:25:21.288Z,79.67
2019-01-23T10:27:53.194Z,66.07
2019-01-23T10:30:26.160Z,81.90
2019-01-23T10:32:58.633Z,74.67
2019-01-23T10:35:35.309Z,77.43
2019-01-23T10:38:09.550Z,77.47
2019-01-23T10:40:42.783Z,77.03
2019-01-23T10:43:14.999Z,78.77
2019-01-23T10:45:46.498Z,78.87
2019-01-23T10:48:18.488Z,77.63
2019-01-23T10:50:50.607Z,72.90
2019-01-23T10:53:23.181Z,82.83
2019-01-23T10:55:59.015Z,80.80
2019-01-23T10:58:32.355Z,78.47
2019-01-23T11:01:06.035Z,75.80
2019-01-23T11:03:42.213Z,72.10
2019-01-23T11:06:16.365Z,72.77
2019-01-23T11:08:49.380Z,78.37
2019-01-23T11:11:25.261Z,71.97
2019-01-23T11:13:59.798Z,67.20
2019-01-23T11:16:34.092Z,70.33
2019-01-23T11:19:05.825Z,71.80
2019-01-23T11:21:43.416Z,76.00
2019-01-23T11:24:16.654Z,67.77
2019-01-23T11:26:49.421Z,69.53
2019-01-23T11:29:23.176Z,67.53
2019-01-23T11:31:57.129Z,68.57
2019-01-23T11:34:29.097Z,67.93
2019-01-23T11:37:01.495Z,68.07
2019-01-23T11:39:35.177Z,68.03
2019-01-23T11:42:08.306Z,72.87
2019-01-23T11:44:43.853Z,69.07
2019-01-23T11:47:18.885Z,67.73
2019-01-23T11:49:50.249Z,71.40
2019-01-23T11:52:23.422Z,74.20
2019-01-23T11:54:57.961Z,72.13
2019-01-23T11:57:31.031Z,64.00
2019-01-23T12:00:02.574Z,67.33
2019-01-23T12:02:37.859Z,72.77
2019-01-23T12:05:11.752Z,67.50
2019-01-23T12:07:46.245Z,66.77
2019-01-23T12:10:20.813Z,67.07
2019-01-23T12:12:53.880Z,65.90
2019-01-23T12:15:26.898Z,67.37
2019-01-23T12:18:00.933Z,72.23
2019-01-23T12:20:32.884Z,67.47
2019-01-23T12:23:04.369Z,67.67
2019-01-23T12:25:35.646Z,66.70
2019-01-23T12:28:07.081Z,67.03
2019-01-23T12:30:53.794Z,68.17
2019-01-23T12:33:35.526Z,70.87
2019-01-23T12:36:08.102Z,71.40
2019-01-23T12:38:39.128Z,70.00
2019-01-23T12:41:09.713Z,70.33
2019-01-23T12:43:41.658Z,70.53
2019-01-23T12:46:14.939Z,65.13
2019-01-23T12:48:53.109Z,69.07
2019-01-23T12:51:25.572Z,70.23
2019-01-23T12:53:58.135Z,68.80
2019-01-23T12:56:29.250Z,66.60
2019-01-23T12:59:04.442Z,68.03
2019-01-23T13:01:56.064Z,67.67
2019-01-23T13:04:30.658Z,65.83
2019-01-23T13:07:04.546Z,66.60
2019-01-23T13:09:36.083Z,71.37
2019-01-23T13:12:07.741Z,69.23
2019-01-23T13:14:38.353Z,71.13
2019-01-23T13:17:09.740Z,68.43
2019-01-23T13:19:44.671Z,69.40
2019-01-23T13:22:16.851Z,65.93
2019-01-23T13:24:53.500Z,71.87
2019-01-23T13:27:25.054Z,71.60
2019-01-23T13:29:58.540Z,64.83
2019-01-23T13:32:29.471Z,69.40
2019-01-23T13:35:01.666Z,69.43
2019-01-23T13:37:35.706Z,67.17
2019-01-23T13:40:12.164Z,65.47
2019-01-23T13:42:44.624Z,68.23
2019-01-23T13:45:17.567Z,71.87
2019-01-23T13:47:50.935Z,64.90
2019-01-23T13:50:22.548Z,68.50
2019-01-23T13:52:53.913Z,67.60
2019-01-23T13:55:27.847Z,74.17
2019-01-23T13:57:59.443Z,69.40
2019-01-23T14:00:37.298Z,67.77
2019-01-23T14:03:08.772Z,65.50
2019-01-23T14:05:40.340Z,69.10
2019-01-23T14:08:11.599Z,66.87
2019-01-23T14:10:44.643Z,70.37
2019-01-23T14:13:17.839Z,65.83
2019-01-23T14:15:50.634Z,65.33
2019-01-23T14:18:21.361Z,63.77
2019-01-23T14:20:52.974Z,70.27
2019-01-23T14:23:23.795Z,71.33
2019-01-23T14:25:56.063Z,70.23
2019-01-23T14:28:27.211Z,71.93
2019-01-23T14:30:58.843Z,75.60
2019-01-23T14:33:30.693Z,68.60
2019-01-23T14:36:04.717Z,66.63
2019-01-23T14:38:36.216Z,69.70
2019-01-23T14:41:08.937Z,71.67
2019-01-23T14:43:40.283Z,65.03
2019-01-23T14:46:12.959Z,67.37
2019-01-23T14:48:45.425Z,64.77
2019-01-23T14:51:19.065Z,66.07
2019-01-23T14:53:49.309Z,65.17
2019-01-23T14:56:21.372Z,67.10
2019-01-23T14:58:53.337Z,64.20
2019-01-23T15:01:25.700Z,61.97
2019-01-23T15:03:58.336Z,61.27
2019-01-23T15:06:30.124Z,61.50
2019-01-23T15:09:04.864Z,59.50
2019-01-23T15:11:37.328Z,56.60
2019-01-23T15:14:09.615Z,61.63
2019-01-23T15:16:42.784Z,65.20
2019-01-23T15:19:14.509Z,59.17
2019-01-23T15:21:46.206Z,61.43
2019-01-23T15:24:17.824Z,57.40
2019-01-23T15:26:50.487Z,65.40
2019-01-23T15:29:26.644Z,57.60
2019-01-23T15:31:58.537Z,65.63
2019-01-23T15:34:29.481Z,61.07
2019-01-23T15:37:02.871Z,57.40
2019-01-23T15:39:35.588Z,60.23
2019-01-23T15:42:07.022Z,54.80
2019-01-23T15:44:39.006Z,59.13
2019-01-23T15:47:16.421Z,60.87
2019-01-23T15:49:48.794Z,59.03
2019-01-23T15:52:23.079Z,62.53
2019-01-23T15:54:54.765Z,60.30
2019-01-23T15:57:27.842Z,61.43
2019-01-23T16:00:00.975Z,59.47
2019-01-23T16:02:35.143Z,62.90
2019-01-23T16:05:09.166Z,59.90
2019-01-23T16:07:40.922Z,63.33
2019-01-23T16:10:17.346Z,61.93
2019-01-23T16:12:50.521Z,64.87
2019-01-23T16:15:25.222Z,64.40
2019-01-23T16:17:57.753Z,57.83
2019-01-23T16:20:31.065Z,64.07
2019-01-23T16:23:03.664Z,63.43
2019-01-23T16:25:35.956Z,62.80
2019-01-23T16:28:20.990Z,60.57
2019-01-23T16:31:04.624Z,60.80
2019-01-23T16:34:03.813Z,61.07
2019-01-23T16:36:41.832Z,61.60
2019-01-23T16:39:18.452Z,60.73
2019-01-23T16:41:53.935Z,66.70
2019-01-23T16:44:32.043Z,66.77
2019-01-23T16:47:16.483Z,59.20
2019-01-23T16:49:56.805Z,61.10
2019-01-23T16:52:31.663Z,58.53
2019-01-23T16:55:15.756Z,59.13
2019-01-23T16:57:58.524Z,61.47
2019-01-23T17:00:34.460Z,65.83
2019-01-23T17:03:17.019Z,59.90
2019-01-23T17:05:57.126Z,62.33
2019-01-23T17:08:45.179Z,55.17
2019-01-23T17:11:29.304Z,58.73
2019-01-23T17:14:06.519Z,61.17
2019-01-23T17:16:42.584Z,57.40
2019-01-23T17:19:23.685Z,64.30
2019-01-23T17:21:59.121Z,57.47
2019-01-23T17:24:37.489Z,62.10
2019-01-23T17:27:15.215Z,59.10
2019-01-23T17:29:57.669Z,57.50
2019-01-23T17:32:38.310Z,62.67
2019-01-23T17:35:19.809Z,62.37
2019-01-23T17:38:02.048Z,55.73
2019-01-23T17:40:58.048Z,59.60
2019-01-23T17:43:40.851Z,54.63
2019-01-23T17:46:19.207Z,53.97
2019-01-23T17:52:08.051Z,57.83
2019-01-23T17:54:42.878Z,59.83
2019-01-23T17:57:14.263Z,60.80
2019-01-23T17:59:48.945Z,62.90
2019-01-23T18:02:40.374Z,58.27
2019-01-23T18:05:13.341Z,58.87
2019-01-23T18:07:44.752Z,62.07
2019-01-23T18:10:22.811Z,59.50
2019-01-23T18:12:55.977Z,64.33
2019-01-23T18:15:28.290Z,65.27
2019-01-23T18:18:00.339Z,58.87
2019-01-23T18:20:32.706Z,58.53
2019-01-23T18:23:07.449Z,59.53
2019-01-23T18:25:40.329Z,62.30
2019-01-23T18:28:13.766Z,56.37
2019-01-23T18:30:53.057Z,57.83
2019-01-23T18:33:32.451Z,60.23
2019-01-23T18:36:47.031Z,64.03
2019-01-23T18:39:55.168Z,60.40
2019-01-23T18:42:46.043Z,62.00
2019-01-23T18:45:41.188Z,65.03
2019-01-23T18:48:49.920Z,58.73
2019-01-23T18:51:32.451Z,59.43
2019-01-23T18:54:07.652Z,64.03
2019-01-23T18:56:38.922Z,59.77
2019-01-23T18:59:10.741Z,63.47
2019-01-23T19:01:42.057Z,63.30
2019-01-23T19:04:14.073Z,64.37
2019-01-23T19:06:46.535Z,63.20
2019-01-23T19:09:28.876Z,60.50
2019-01-23T19:12:02.887Z,58.53
2019-01-23T19:14:36.880Z,60.90
2019-01-23T19:17:07.187Z,68.97
2019-01-23T19:19:40.689Z,62.67
2019-01-23T19:22:11.180Z,60.40
2019-01-23T19:24:43.429Z,64.77
2019-01-23T19:27:17.130Z,59.20
2019-01-23T19:29:50.013Z,71.10
2019-01-23T19:32:21.093Z,61.33
2019-01-23T19:34:54.257Z,60.83
2019-01-23T19:37:26.725Z,63.43
2019-01-23T19:39:59.722Z,66.63
2019-01-23T19:42:31.379Z,64.33
2019-01-23T19:45:03.219Z,65.63
2019-01-23T19:47:33.814Z,62.87
2019-01-23T19:50:06.978Z,66.70
2019-01-23T19:52:38.907Z,63.87
2019-01-23T19:55:12.188Z,63.80
2019-01-23T19:57:42.795Z,66.90
2019-01-23T20:00:16.660Z,66.50
2019-01-23T20:02:47.708Z,63.23
2019-01-23T20:05:23.030Z,64.00
2019-01-23T20:07:55.906Z,62.00
2019-01-23T20:10:29.498Z,66.63
2019-01-23T20:13:00.153Z,60.40
2019-01-23T20:15:38.967Z,62.53
2019-01-23T20:18:13.046Z,60.67
2019-01-23T20:20:45.898Z,71.37
2019-01-23T20:23:17.470Z,64.27
2019-01-23T20:25:49.420Z,63.67
2019-01-23T20:28:22.832Z,66.37
2019-01-23T20:30:53.586Z,61.93
2019-01-23T20:33:28.046Z,64.73
2019-01-23T20:36:01.167Z,69.87
2019-01-23T20:38:35.065Z,62.23
2019-01-23T20:41:06.506Z,59.60
2019-01-23T20:43:38.815Z,56.87
2019-01-23T20:46:13.138Z,62.37
2019-01-23T20:48:44.260Z,65.13
2019-01-23T20:51:18.999Z,64.20
2019-01-23T20:53:50.516Z,64.17
2019-01-23T20:56:22.513Z,63.40
2019-01-23T20:58:53.968Z,60.43
2019-01-23T21:01:27.701Z,58.77
2019-01-23T21:03:59.428Z,64.13
2019-01-23T21:06:33.525Z,70.00
2019-01-23T21:09:11.342Z,62.33
2019-01-23T21:11:43.524Z,61.20
2019-01-23T21:14:18.666Z,58.53
2019-01-23T21:16:52.874Z,68.63
2019-01-23T21:19:23.993Z,63.67
2019-01-23T21:22:01.496Z,67.43
2019-01-23T21:24:42.963Z,64.07
2019-01-23T21:27:16.826Z,62.33
2019-01-23T21:29:53.516Z,67.43
2019-01-23T21:32:30.774Z,66.00
2019-01-23T21:35:09.208Z,63.23
2019-01-23T21:37:42.532Z,64.90
2019-01-23T21:40:21.191Z,62.83
2019-01-23T21:42:55.685Z,70.90
2019-01-23T21:45:40.839Z,67.93
2019-01-23T21:48:15.645Z,66.20
2019-01-23T21:50:48.177Z,68.93
2019-01-23T21:53:20.932Z,64.37
2019-01-23T21:55:54.765Z,68.53
2019-01-23T21:58:26.006Z,68.80
2019-01-23T22:01:04.282Z,77.33
2019-01-23T22:03:37.018Z,80.13
2019-01-23T22:06:12.542Z,78.17
2019-01-23T22:08:49.330Z,75.27
2019-01-23T22:11:26.567Z,75.10
2019-01-23T22:14:00.838Z,77.13
2019-01-23T22:16:35.009Z,75.63
2019-01-23T22:19:06.028Z,73.33
2019-01-23T22:21:38.387Z,82.47
2019-01-23T22:24:12.680Z,86.23
2019-01-23T22:26:43.709Z,86.10
2019-01-23T22:29:14.466Z,88.40
2019-01-23T22:31:48.562Z,91.73
2019-01-23T22:34:19.522Z,83.73
2019-01-23T22:36:52.413Z,88.27
2019-01-23T22:39:26.011Z,90.07
2019-01-23T22:42:01.335Z,94.33
2019-01-23T22:44:35.019Z,93.57
2019-01-23T22:47:12.137Z,89.10
2019-01-23T22:49:45.315Z,93.80
2019-01-23T22:52:19.004Z,88.03
2019-01-23T22:54:50.826Z,88.30
2019-01-23T22:57:26.150Z,88.67
2019-01-23T23:00:06.995Z,89.23
2019-01-23T23:02:52.822Z,90.60
2019-01-23T23:05:26.916Z,87.07
2019-01-23T23:08:00.989Z,94.00
2019-01-23T23:10:32.659Z,81.73
2019-01-23T23:13:05.310Z,87.00
2019-01-23T23:15:38.957Z,94.13
2019-01-23T23:18:09.985Z,92.10
2019-01-23T23:20:42.141Z,86.67
2019-01-23T23:23:13.233Z,91.20
2019-01-23T23:25:45.973Z,87.33
2019-01-23T23:28:18.557Z,91.23
2019-01-23T23:30:52.282Z,84.93
2019-01-23T23:33:24.137Z,83.63
2019-01-23T23:35:55.710Z,87.33
2019-01-23T23:38:28.455Z,83.00
2019-01-23T23:41:00.970Z,77.20
2019-01-23T23:43:32.490Z,83.13
2019-01-23T23:46:04.509Z,85.83
2019-01-23T23:48:37.099Z,78.57
2019-01-23T23:51:11.343Z,89.07
2019-01-23T23:53:42.717Z,81.90
2019-01-23T23:56:14.777Z,83.70
2019-01-23T23:58:45.599Z,86.83
